createdAt,value
2019-04-06T00:02:31.444Z,99260.67
2019-04-06T00:05:03.663Z,99262.31
2019-04-06T00:07:35.386Z,99262.25
2019-04-06T00:10:08.082Z,99257.80
2019-04-06T00:12:39.729Z,99257.98
2019-04-06T00:15:12.076Z,99251.69
2019-04-06T00:17:43.837Z,99247.55
2019-04-06T00:20:16.198Z,99248.23
2019-04-06T00:22:49.954Z,99250.61
2019-04-06T00:25:22.193Z,99243.17
2019-04-06T00:27:54.471Z,99235.26
2019-04-06T00:30:27.059Z,99236.81
2019-04-06T00:33:03.173Z,99237.06
2019-04-06T00:35:40.436Z,99233.38
2019-04-06T00:38:18.576Z,99227.94
2019-04-06T00:40:50.525Z,99232.24
2019-04-06T00:43:22.246Z,99233.80
2019-04-06T00:45:54.623Z,99239.09
2019-04-06T00:48:30.757Z,99222.27
2019-04-06T00:51:07.562Z,99227.56
2019-04-06T00:53:40.896Z,99218.66
2019-04-06T00:56:12.623Z,99225.33
2019-04-06T00:58:44.266Z,99220.73
2019-04-06T01:01:18.580Z,99221.83
2019-04-06T01:03:57.417Z,99227.67
2019-04-06T01:06:33.409Z,99227.52
2019-04-06T01:09:08.817Z,99225.61
2019-04-06T01:11:40.780Z,99223.75
2019-04-06T01:14:17.244Z,99223.27
2019-04-06T01:17:00.467Z,99225.73
2019-04-06T01:19:32.215Z,99221.33
2019-04-06T01:22:11.217Z,99227.23
2019-04-06T01:24:45.210Z,99228.20
2019-04-06T01:27:17.248Z,99223.84
2019-04-06T01:29:49.431Z,99217.45
2019-04-06T01:32:38.271Z,99219.75
2019-04-06T01:35:13.009Z,99223.67
2019-04-06T01:37:44.894Z,99228.44
2019-04-06T01:40:16.988Z,99229.80
2019-04-06T01:42:48.648Z,99230.66
2019-04-06T01:45:20.420Z,99231.56
2019-04-06T01:47:52.878Z,99232.41
2019-04-06T01:50:24.554Z,99225.95
2019-04-06T01:52:56.206Z,99228.20
2019-04-06T01:55:28.047Z,99243.41
2019-04-06T01:57:59.734Z,99238.24
2019-04-06T02:00:31.404Z,99229.63
2019-04-06T02:03:04.040Z,99232.69
2019-04-06T02:05:35.630Z,99227.93
2019-04-06T02:08:07.263Z,99224.56
2019-04-06T02:10:38.919Z,99222.17
2019-04-06T02:13:10.545Z,99224.91
2019-04-06T02:15:42.236Z,99225.13
2019-04-06T02:18:14.505Z,99227.95
2019-04-06T02:20:46.488Z,99223.25
2019-04-06T02:23:18.119Z,99224.19
2019-04-06T02:25:49.849Z,99221.64
2019-04-06T02:28:21.474Z,99223.86
2019-04-06T02:31:05.937Z,99221.19
2019-04-06T02:34:00.163Z,99215.63
2019-04-06T02:36:53.731Z,99219.25
2019-04-06T02:39:43.267Z,99221.97
2019-04-06T02:42:19.029Z,99220.37
2019-04-06T02:44:50.941Z,99227.01
2019-04-06T02:47:22.558Z,99227.16
2019-04-06T02:49:55.991Z,99221.55
2019-04-06T02:52:27.569Z,99226.38
2019-04-06T02:54:59.631Z,99220.39
2019-04-06T02:57:31.197Z,99220.00
2019-04-06T03:00:03.164Z,99220.97
2019-04-06T03:02:35.001Z,99218.00
2019-04-06T03:05:09.013Z,99225.09
2019-04-06T03:07:40.866Z,99225.18
2019-04-06T03:10:12.756Z,99226.15
2019-04-06T03:12:44.605Z,99223.69
2019-04-06T03:15:16.637Z,99226.30
2019-04-06T03:17:48.243Z,99221.86
2019-04-06T03:20:20.858Z,99225.53
2019-04-06T03:22:52.488Z,99228.75
2019-04-06T03:25:24.423Z,99226.11
2019-04-06T03:27:56.200Z,99232.57
2019-04-06T03:30:27.893Z,99229.81
2019-04-06T03:32:59.935Z,99223.64
2019-04-06T03:35:32.982Z,99225.40
2019-04-06T03:38:05.086Z,99228.05
2019-04-06T03:40:37.110Z,99220.59
2019-04-06T03:43:08.763Z,99217.98
2019-04-06T03:45:41.554Z,99222.14
2019-04-06T03:48:13.124Z,99226.30
2019-04-06T03:50:45.432Z,99228.74
2019-04-06T03:53:17.086Z,99228.56
2019-04-06T03:55:49.148Z,99235.42
2019-04-06T03:58:20.727Z,99232.13
2019-04-06T04:00:52.448Z,99230.42
2019-04-06T04:03:24.080Z,99243.81
2019-04-06T04:05:55.789Z,99235.58
2019-04-06T04:08:28.094Z,99234.91
2019-04-06T04:11:00.165Z,99239.45
2019-04-06T04:13:32.152Z,99237.22
2019-04-06T04:16:03.924Z,99232.56
2019-04-06T04:18:35.607Z,99224.39
2019-04-06T04:21:07.567Z,99226.81
2019-04-06T04:23:39.855Z,99227.08
2019-04-06T04:26:11.464Z,99228.24
2019-04-06T04:28:43.102Z,99231.64
2019-04-06T04:31:16.340Z,99227.74
2019-04-06T04:33:48.421Z,99219.98
2019-04-06T04:36:20.206Z,99227.12
2019-04-06T04:38:52.509Z,99232.20
2019-04-06T04:41:24.223Z,99233.78
2019-04-06T04:43:55.991Z,99230.23
2019-04-06T04:46:27.643Z,99238.63
2019-04-06T04:48:59.277Z,99233.29
2019-04-06T04:51:31.013Z,99237.81
2019-04-06T04:54:03.824Z,99238.03
2019-04-06T04:56:35.808Z,99240.32
2019-04-06T04:59:07.684Z,99244.89
2019-04-06T05:01:39.332Z,99244.34
2019-04-06T05:04:11.237Z,99248.61
2019-04-06T05:06:42.836Z,99251.75
2019-04-06T05:09:15.330Z,99253.78
2019-04-06T05:11:48.970Z,99253.52
2019-04-06T05:15:03.607Z,99263.15
2019-04-06T05:17:35.199Z,99257.55
2019-04-06T05:20:08.408Z,99258.79
2019-04-06T05:22:40.320Z,99256.64
2019-04-06T05:25:13.870Z,99257.44
2019-04-06T05:27:52.055Z,99261.39
2019-04-06T05:30:18.914Z,99264.44
2019-04-06T05:32:50.682Z,99270.89
2019-04-06T05:35:22.337Z,99275.47
2019-04-06T05:37:54.011Z,99276.14
2019-04-06T05:40:26.248Z,99279.78
2019-04-06T05:42:57.879Z,99281.18
2019-04-06T05:45:29.562Z,99274.77
2019-04-06T05:48:01.594Z,99283.20
2019-04-06T05:50:33.743Z,99287.38
2019-04-06T05:53:05.452Z,99289.75
2019-04-06T05:55:38.137Z,99298.18
2019-04-06T05:58:11.090Z,99301.77
2019-04-06T06:00:42.766Z,99304.55
2019-04-06T06:03:15.521Z,99307.40
2019-04-06T06:05:47.857Z,99302.81
2019-04-06T06:08:19.609Z,99303.80
2019-04-06T06:10:51.343Z,99301.30
2019-04-06T06:13:36.563Z,99304.48
2019-04-06T06:16:08.309Z,99304.98
2019-04-06T06:18:40.152Z,99303.36
2019-04-06T06:21:13.604Z,99307.87
2019-04-06T06:23:45.326Z,99305.41
2019-04-06T06:26:17.362Z,99309.44
2019-04-06T06:28:49.386Z,99300.78
2019-04-06T06:31:21.081Z,99301.97
2019-04-06T06:33:52.948Z,99302.77
2019-04-06T06:36:25.303Z,99293.53
2019-04-06T06:38:57.185Z,99304.23
2019-04-06T06:41:29.387Z,99305.42
2019-04-06T06:44:03.993Z,99308.80
2019-04-06T06:46:35.689Z,99306.16
2019-04-06T06:49:07.810Z,99306.13
2019-04-06T06:51:39.869Z,99304.88
2019-04-06T06:54:11.560Z,99302.33
2019-04-06T06:56:43.244Z,99300.58
2019-04-06T06:59:15.545Z,99295.30
2019-04-06T07:01:47.472Z,99307.47
2019-04-06T07:04:19.482Z,99301.89
2019-04-06T07:06:51.251Z,99303.59
2019-04-06T07:09:23.054Z,99302.78
2019-04-06T07:11:55.270Z,99300.16
2019-04-06T07:14:27.783Z,99300.33
2019-04-06T07:16:59.443Z,99310.38
2019-04-06T07:19:31.513Z,99306.09
2019-04-06T07:22:03.330Z,99298.80
2019-04-06T07:24:35.128Z,99302.88
2019-04-06T07:27:07.218Z,99303.78
2019-04-06T07:29:39.250Z,99304.25
2019-04-06T07:32:11.561Z,99292.07
2019-04-06T07:34:43.386Z,99289.82
2019-04-06T07:37:15.078Z,99297.21
2019-04-06T07:39:46.704Z,99296.72
2019-04-06T07:42:19.378Z,99292.27
2019-04-06T07:44:53.127Z,99296.47
2019-04-06T07:47:25.342Z,99287.19
2019-04-06T07:49:57.730Z,99284.91
2019-04-06T07:52:39.835Z,99285.89
2019-04-06T07:55:12.379Z,99280.21
2019-04-06T07:57:44.118Z,99281.19
2019-04-06T08:00:16.580Z,99270.76
2019-04-06T08:02:48.342Z,99269.96
2019-04-06T08:05:20.357Z,99264.19
2019-04-06T08:07:52.067Z,99265.44
2019-04-06T08:10:23.826Z,99263.59
2019-04-06T08:12:55.744Z,99257.54
2019-04-06T08:15:27.931Z,99251.75
2019-04-06T08:17:59.602Z,99256.02
2019-04-06T08:20:31.550Z,99251.54
2019-04-06T08:23:03.355Z,99250.64
2019-04-06T08:25:35.106Z,99243.17
2019-04-06T08:28:07.221Z,99241.38
2019-04-06T08:30:45.462Z,99238.86
2019-04-06T08:33:12.733Z,99237.27
2019-04-06T08:35:44.792Z,99238.05
2019-04-06T08:38:17.041Z,99246.56
2019-04-06T08:40:48.886Z,99237.48
2019-04-06T08:43:21.141Z,99238.88
2019-04-06T08:45:53.427Z,99238.52
2019-04-06T08:48:25.390Z,99239.33
2019-04-06T08:50:57.051Z,99235.86
2019-04-06T08:53:28.805Z,99245.15
2019-04-06T08:56:00.637Z,99244.30
2019-04-06T08:58:32.468Z,99236.39
2019-04-06T09:01:04.494Z,99240.23
2019-04-06T09:03:36.477Z,99239.27
2019-04-06T09:06:08.729Z,99237.83
2019-04-06T09:08:40.622Z,99237.75
2019-04-06T09:11:12.740Z,99232.95
2019-04-06T09:13:44.447Z,99233.20
2019-04-06T09:16:16.583Z,99228.17
2019-04-06T09:18:49.323Z,99228.03
2019-04-06T09:21:22.644Z,99223.12
2019-04-06T09:23:54.651Z,99220.49
2019-04-06T09:26:26.609Z,99214.89
2019-04-06T09:28:59.536Z,99209.46
2019-04-06T09:31:31.796Z,99208.02
2019-04-06T09:34:03.555Z,99212.39
2019-04-06T09:36:35.330Z,99207.66
2019-04-06T09:39:08.039Z,99204.09
2019-04-06T09:41:39.743Z,99203.58
2019-04-06T09:44:19.049Z,99192.43
2019-04-06T09:47:07.334Z,99202.31
2019-04-06T09:49:56.929Z,99196.89
2019-04-06T09:52:43.841Z,99189.50
2019-04-06T09:55:46.941Z,99187.85
2019-04-06T09:58:40.382Z,99179.61
2019-04-06T10:01:37.996Z,99173.20
2019-04-06T10:04:22.325Z,99177.59
2019-04-06T10:07:05.801Z,99169.95
2019-04-06T10:09:59.411Z,99178.53
2019-04-06T10:12:49.044Z,99174.81
2019-04-06T10:15:48.618Z,99174.95
2019-04-06T10:18:42.145Z,99180.86
2019-04-06T10:21:30.171Z,99169.23
2019-04-06T10:24:26.747Z,99165.17
2019-04-06T10:27:30.748Z,99160.13
2019-04-06T10:30:27.157Z,99157.52
2019-04-06T10:33:04.752Z,99155.74
2019-04-06T10:35:53.273Z,99146.83
2019-04-06T10:38:56.538Z,99143.38
2019-04-06T10:41:47.148Z,99149.16
2019-04-06T10:44:35.895Z,99143.17
2019-04-06T10:47:23.076Z,99139.33
2019-04-06T10:50:13.725Z,99144.73
2019-04-06T10:52:54.322Z,99140.78
2019-04-06T10:55:39.339Z,99138.04
2019-04-06T10:58:39.340Z,99131.08
2019-04-06T11:01:39.524Z,99130.60
2019-04-06T11:04:23.191Z,99131.45
2019-04-06T11:07:12.585Z,99133.36
2019-04-06T11:09:55.194Z,99129.88
2019-04-06T11:12:37.724Z,99120.85
2019-04-06T11:15:43.861Z,99119.89
2019-04-06T11:18:34.705Z,99114.72
2019-04-06T11:21:22.706Z,99110.55
2019-04-06T11:24:11.038Z,99104.41
2019-04-06T11:26:50.309Z,99101.51
2019-04-06T11:29:42.539Z,99108.48
2019-04-06T11:32:41.686Z,99107.27
2019-04-06T11:35:32.905Z,99101.27
2019-04-06T11:38:26.790Z,99098.84
2019-04-06T11:41:25.477Z,99106.18
2019-04-06T11:44:16.334Z,99101.95
2019-04-06T11:47:22.480Z,99104.37
2019-04-06T11:50:28.473Z,99105.52
2019-04-06T11:53:21.523Z,99107.31
2019-04-06T11:56:15.534Z,99103.44
2019-04-06T11:58:56.426Z,99098.28
2019-04-06T12:01:37.719Z,99099.45
2019-04-06T12:04:31.894Z,99106.20
2019-04-06T12:07:12.467Z,99108.58
2019-04-06T12:09:53.837Z,99106.66
2019-04-06T12:12:50.414Z,99110.36
2019-04-06T12:15:43.842Z,99106.00
2019-04-06T12:18:34.399Z,99106.61
2019-04-06T12:21:24.018Z,99102.83
2019-04-06T12:24:15.258Z,99106.05
2019-04-06T12:27:15.704Z,99104.73
2019-04-06T12:30:06.823Z,99102.33
2019-04-06T12:33:03.406Z,99100.73
2019-04-06T12:36:03.654Z,99106.48
2019-04-06T12:38:53.440Z,99111.05
2019-04-06T12:41:43.997Z,99107.17
2019-04-06T12:44:34.804Z,99107.86
2019-04-06T12:47:43.973Z,99113.42
2019-04-06T12:50:32.772Z,99105.61
2019-04-06T12:53:26.127Z,99107.26
2019-04-06T12:56:32.255Z,99108.06
2019-04-06T12:59:16.490Z,99113.93
2019-04-06T13:02:04.677Z,99116.84
2019-04-06T13:04:52.264Z,99116.77
2019-04-06T13:07:35.321Z,99123.02
2019-04-06T13:10:26.579Z,99117.84
2019-04-06T13:13:18.177Z,99121.94
2019-04-06T13:16:18.095Z,99120.97
2019-04-06T13:19:09.461Z,99112.28
2019-04-06T13:21:57.025Z,99100.53
2019-04-06T13:24:45.767Z,99095.60
2019-04-06T13:27:27.025Z,99086.72
2019-04-06T13:30:23.455Z,99090.73
2019-04-06T13:33:16.912Z,99086.66
2019-04-06T13:36:17.111Z,99082.80
2019-04-06T13:39:07.180Z,99072.63
2019-04-06T13:41:55.299Z,99078.84
2019-04-06T13:44:44.647Z,99074.20
2019-04-06T13:47:36.991Z,99078.13
2019-04-06T13:50:30.528Z,99078.13
2019-04-06T13:53:21.405Z,99073.72
2019-04-06T13:56:00.230Z,99072.72
2019-04-06T13:58:50.967Z,99073.79
2019-04-06T14:01:50.696Z,99068.84
2019-04-06T14:04:47.677Z,99066.75
2019-04-06T14:07:26.819Z,99066.20
2019-04-06T14:10:35.724Z,99060.91
2019-04-06T14:13:24.977Z,99056.92
2019-04-06T14:16:15.536Z,99056.86
2019-04-06T14:18:56.524Z,99044.16
2019-04-06T14:21:47.730Z,99047.03
2019-04-06T14:24:53.607Z,99052.05
2019-04-06T14:27:53.545Z,99048.69
2019-04-06T14:30:41.791Z,99055.05
2019-04-06T14:33:31.047Z,99038.91
2019-04-06T14:36:21.916Z,99047.77
2019-04-06T14:39:15.357Z,99048.44
2019-04-06T14:42:00.028Z,99050.58
2019-04-06T14:45:02.780Z,99051.73
2019-04-06T14:48:09.555Z,99054.91
2019-04-06T14:51:02.001Z,99051.47
2019-04-06T14:53:39.240Z,99054.41
2019-04-06T14:56:32.628Z,99045.45
2019-04-06T14:59:23.476Z,99040.64
2019-04-06T15:02:14.183Z,99043.17
2019-04-06T15:05:07.837Z,99038.94
2019-04-06T15:08:04.519Z,99033.48
2019-04-06T15:10:56.097Z,99028.77
2019-04-06T15:13:56.320Z,99029.02
2019-04-06T15:16:47.133Z,99029.92
2019-04-06T15:19:43.798Z,99032.98
2019-04-06T15:22:34.735Z,99028.16
2019-04-06T15:25:12.759Z,99024.31
2019-04-06T15:28:12.174Z,99022.86
2019-04-06T15:31:01.009Z,99017.64
2019-04-06T15:33:53.086Z,99011.45
2019-04-06T15:36:55.867Z,99009.23
2019-04-06T15:39:49.390Z,99012.08
2019-04-06T15:42:40.373Z,99006.59
2019-04-06T15:45:29.963Z,98995.77
2019-04-06T15:48:19.135Z,98994.25
2019-04-06T15:51:00.267Z,98987.69
2019-04-06T15:54:01.456Z,98979.80
2019-04-06T15:56:50.821Z,98982.03
2019-04-06T15:59:29.996Z,98981.90
2019-04-06T16:02:20.826Z,98976.24
2019-04-06T16:05:11.416Z,98975.21
2019-04-06T16:08:08.288Z,98975.83
2019-04-06T16:10:57.767Z,98969.13
2019-04-06T16:13:48.705Z,98969.91
2019-04-06T16:16:37.797Z,98972.82
2019-04-06T16:19:34.499Z,98976.02
2019-04-06T16:22:16.002Z,98972.14
2019-04-06T16:25:01.662Z,98970.72
2019-04-06T16:27:51.553Z,98969.67
2019-04-06T16:30:40.392Z,98970.55
2019-04-06T16:33:40.616Z,98962.17
2019-04-06T16:36:25.951Z,98962.42
2019-04-06T16:39:29.517Z,98961.75
2019-04-06T16:42:38.709Z,98968.14
2019-04-06T16:45:20.674Z,98969.63
2019-04-06T16:48:03.299Z,98968.07
2019-04-06T16:50:53.900Z,98970.84
2019-04-06T16:53:51.509Z,98970.00
2019-04-06T16:56:45.951Z,98971.33
2019-04-06T16:59:25.624Z,98974.34
2019-04-06T17:02:21.580Z,98980.60
2019-04-06T17:04:58.245Z,98974.63
2019-04-06T17:07:46.846Z,98979.33
2019-04-06T17:10:25.925Z,98974.31
2019-04-06T17:13:19.880Z,98972.80
2019-04-06T17:16:15.423Z,98971.23
2019-04-06T17:19:05.971Z,98982.67
2019-04-06T17:21:56.793Z,98977.66
2019-04-06T17:24:38.016Z,98972.41
2019-04-06T17:27:17.155Z,98973.78
2019-04-06T17:30:10.488Z,98975.84
2019-04-06T17:32:59.426Z,98974.08
2019-04-06T17:35:40.443Z,98979.22
2019-04-06T17:38:24.197Z,98978.06
2019-04-06T17:41:02.937Z,98986.41
2019-04-06T17:43:47.575Z,98979.83
2019-04-06T17:46:38.754Z,98986.24
2019-04-06T17:49:28.274Z,98988.17
2019-04-06T17:52:12.113Z,98990.29
2019-04-06T17:55:06.119Z,98995.17
2019-04-06T17:57:49.367Z,98998.45
2019-04-06T18:00:43.522Z,98987.45
2019-04-06T18:03:34.305Z,98984.14
2019-04-06T18:06:22.899Z,98984.28
2019-04-06T18:09:22.727Z,98983.71
2019-04-06T18:12:13.690Z,98987.58
2019-04-06T18:14:48.741Z,98983.97
2019-04-06T18:17:20.875Z,98990.59
2019-04-06T18:19:53.013Z,98988.49
2019-04-06T18:22:23.608Z,98998.60
2019-04-06T18:24:53.363Z,98996.45
2019-04-06T18:27:25.339Z,98996.33
2019-04-06T18:29:57.120Z,98998.50
2019-04-06T18:32:58.304Z,99003.66
2019-04-06T18:35:20.019Z,99000.55
2019-04-06T18:38:19.940Z,99001.77
2019-04-06T18:40:51.818Z,99001.56
2019-04-06T18:43:23.971Z,99003.37
2019-04-06T18:45:55.894Z,99002.28
2019-04-06T18:48:28.022Z,99007.93
2019-04-06T18:50:59.757Z,99010.46
2019-04-06T18:53:32.111Z,99013.69
2019-04-06T18:56:04.200Z,99010.72
2019-04-06T18:58:35.964Z,99016.22
2019-04-06T19:01:07.922Z,99014.68
2019-04-06T19:03:40.396Z,99024.14
2019-04-06T19:06:12.560Z,99021.16
2019-04-06T19:08:45.128Z,99025.23
2019-04-06T19:11:17.364Z,99028.81
2019-04-06T19:13:49.046Z,99030.38
2019-04-06T19:16:21.885Z,99028.44
2019-04-06T19:18:53.665Z,99033.02
2019-04-06T19:21:25.665Z,99028.80
2019-04-06T19:23:57.513Z,99032.50
2019-04-06T19:26:29.857Z,99036.09
2019-04-06T19:29:01.854Z,99043.63
2019-04-06T19:31:33.982Z,99043.27
2019-04-06T19:34:06.017Z,99048.06
2019-04-06T19:36:37.955Z,99041.47
2019-04-06T19:39:15.215Z,99043.73
2019-04-06T19:41:47.342Z,99047.22
2019-04-06T19:44:19.320Z,99045.56
2019-04-06T19:46:51.297Z,99044.57
2019-04-06T19:49:23.118Z,99042.18
2019-04-06T19:51:55.459Z,99039.28
2019-04-06T19:54:27.210Z,99036.16
2019-04-06T19:56:58.949Z,99043.58
2019-04-06T19:59:30.715Z,99041.43
2019-04-06T20:02:03.036Z,99041.63
2019-04-06T20:04:35.415Z,99038.27
2019-04-06T20:07:07.310Z,99039.08
2019-04-06T20:09:39.201Z,99035.11
2019-04-06T20:12:11.530Z,99043.36
2019-04-06T20:14:45.010Z,99037.58
2019-04-06T20:17:17.638Z,99038.30
2019-04-06T20:19:50.747Z,99042.02
2019-04-06T20:22:23.068Z,99031.58
2019-04-06T20:24:55.025Z,99039.22
2019-04-06T20:27:27.107Z,99038.14
2019-04-06T20:29:58.866Z,99035.48
2019-04-06T20:32:30.591Z,99038.35
2019-04-06T20:35:02.707Z,99028.97
2019-04-06T20:37:34.667Z,99030.05
2019-04-06T20:40:08.683Z,99027.86
2019-04-06T20:42:40.526Z,99025.19
2019-04-06T20:45:13.018Z,99026.00
2019-04-06T20:47:44.853Z,99021.28
2019-04-06T20:50:16.875Z,99018.34
2019-04-06T20:52:49.079Z,99016.48
2019-04-06T20:55:20.915Z,99024.30
2019-04-06T20:57:52.884Z,99022.42
2019-04-06T21:00:24.595Z,99027.87
2019-04-06T21:02:56.526Z,99031.63
2019-04-06T21:05:28.811Z,99023.31
2019-04-06T21:08:00.903Z,99024.72
2019-04-06T21:10:32.736Z,99024.95
2019-04-06T21:13:04.704Z,99017.37
2019-04-06T21:15:36.411Z,99016.26
2019-04-06T21:18:08.088Z,99015.07
2019-04-06T21:20:40.245Z,99012.73
2019-04-06T21:23:12.859Z,99005.44
2019-04-06T21:25:44.604Z,99004.50
2019-04-06T21:28:16.605Z,99004.84
2019-04-06T21:30:48.363Z,99004.17
2019-04-06T21:33:20.093Z,99002.77
2019-04-06T21:35:52.785Z,99002.27
2019-04-06T21:38:24.411Z,99005.02
2019-04-06T21:40:56.999Z,99006.16
2019-04-06T21:43:28.933Z,99005.07
2019-04-06T21:46:01.220Z,99007.08
2019-04-06T21:48:33.429Z,99013.22
2019-04-06T21:51:05.451Z,99013.08
2019-04-06T21:53:37.193Z,99014.65
2019-04-06T21:56:09.205Z,99016.59
2019-04-06T21:58:41.487Z,99009.33
2019-04-06T22:01:15.493Z,99016.86
2019-04-06T22:03:47.440Z,99019.52
2019-04-06T22:06:19.411Z,99012.41
2019-04-06T22:08:51.302Z,99014.57
2019-04-06T22:11:23.170Z,99014.48
2019-04-06T22:13:54.902Z,99014.32
2019-04-06T22:16:27.284Z,99014.81
2019-04-06T22:19:00.020Z,99022.61
2019-04-06T22:21:32.643Z,99024.39
2019-04-06T22:24:04.628Z,99027.87
2019-04-06T22:26:36.287Z,99029.09
2019-04-06T22:29:11.727Z,99030.69
2019-04-06T22:31:43.774Z,99030.56
2019-04-06T22:34:16.101Z,99023.63
2019-04-06T22:36:47.998Z,99029.72
2019-04-06T22:39:20.318Z,99019.59
2019-04-06T22:41:52.432Z,99026.06
2019-04-06T22:44:25.349Z,99024.75
2019-04-06T22:46:57.094Z,99027.29
2019-04-06T22:49:29.381Z,99022.38
2019-04-06T22:52:04.291Z,99021.53
2019-04-06T22:54:36.580Z,99025.13
2019-04-06T22:57:09.071Z,99021.75
2019-04-06T22:59:40.812Z,99027.84
2019-04-06T23:02:12.830Z,99025.22
2019-04-06T23:04:58.398Z,99014.97
2019-04-06T23:07:30.019Z,99019.20
2019-04-06T23:10:02.126Z,99012.07
2019-04-06T23:12:34.502Z,99008.69
2019-04-06T23:15:07.232Z,99010.78
2019-04-06T23:17:39.413Z,99013.89
2019-04-06T23:20:11.459Z,99006.16
2019-04-06T23:22:43.709Z,99006.92
2019-04-06T23:25:16.144Z,99008.80
2019-04-06T23:27:48.001Z,99007.39
2019-04-06T23:30:19.892Z,99006.38
2019-04-06T23:32:52.151Z,99006.92
2019-04-06T23:35:23.833Z,99007.23
2019-04-06T23:37:56.193Z,99007.31
2019-04-06T23:40:28.312Z,99013.88
2019-04-06T23:42:59.946Z,99008.55
2019-04-06T23:45:31.951Z,99006.55
2019-04-06T23:48:03.724Z,99007.30
2019-04-06T23:50:36.082Z,99006.72
2019-04-06T23:53:07.854Z,99010.31
2019-04-06T23:55:41.437Z,99011.24
2019-04-06T23:58:21.330Z,99011.08
